PWSweather.com
Personal Weather Stations
Station Observations
WXGLH1124
Southern Oaks, Indianapolis, IN 46217

Southern OaksIndianapolis, IN 46217

Lat: 39.65113, Lon: -86.16866

Elevation: 720

Station Type: Vantage Pro2

High Low Average
Temperature 32.4°F0.2°C 29.1°F-1.6°C 30.7°F-0.7°C
Dew Point 29.4°F-1.4°C 21.4°F-5.9°C 25.5°F-3.6°C
Winds 10.0 mph 16.1 kmh Calm Calm 2.0 mph WNW3.2 kmh WNW
Wind Gusts 13.0 mph20.9 kmh -- 5.0 mph8.0 kmh
Humidity 89% 65% 81%
Pressure 30.59 in1035.9 mb 29.96 in1014.6 mb -
Precipitation 0.00 in0.0 mm - -
Hour Temp Dew Point Humidity Winds Wind Gusts Pressure Precip Precip Rate Daily Precip Total
12:00 AM 32.3°F0.2°C 30.0°F-1.1°C 91% Calm Calm 3.0 mph4.8 kmh 29.94 in1013.9 mb 0.00 in0.0 mm 0.00 in0.0 mm 0.00 in0.0 mm
12:05 AM 32.3°F0.2°C 30.0°F-1.1°C 91% 6.0 mph WNW9.7 kmh WNW 6.0 mph9.7 kmh 29.94 in1013.9 mb 0.00 in0.0 mm 0.00 in0.0 mm 0.00 in0.0 mm
12:10 AM 32.3°F0.2°C 29.7°F-1.3°C 90% 3.0 mph WSW4.8 kmh WSW 6.0 mph9.7 kmh 29.95 in1014.2 mb 0.00 in0.0 mm 0.00 in0.0 mm 0.00 in0.0 mm
12:15 AM 32.3°F0.2°C 29.7°F-1.3°C 90% Calm Calm 2.0 mph3.2 kmh 29.95 in1014.2 mb 0.00 in0.0 mm 0.00 in0.0 mm 0.00 in0.0 mm
12:20 AM 32.3°F0.2°C 29.7°F-1.3°C 90% 2.0 mph WNW3.2 kmh WNW 4.0 mph6.4 kmh 29.95 in1014.2 mb 0.00 in0.0 mm 0.00 in0.0 mm 0.00 in0.0 mm
12:25 AM 32.3°F0.2°C 30.0°F-1.1°C 91% 4.0 mph W6.4 kmh W 4.0 mph6.4 kmh 29.95 in1014.2 mb 0.00 in0.0 mm 0.00 in0.0 mm 0.00 in0.0 mm
12:30 AM 32.3°F0.2°C 29.7°F-1.3°C 90% 1.0 mph WNW1.6 kmh WNW 8.0 mph12.9 kmh 29.95 in1014.2 mb 0.00 in0.0 mm 0.00 in0.0 mm 0.00 in0.0 mm
12:34 AM 32.3°F0.2°C 29.7°F-1.3°C 90% 3.0 mph W4.8 kmh W 7.0 mph11.3 kmh 29.96 in1014.6 mb 0.00 in0.0 mm 0.00 in0.0 mm 0.00 in0.0 mm
12:40 AM 32.3°F0.2°C 29.7°F-1.3°C 90% 1.0 mph WSW1.6 kmh WSW 4.0 mph6.4 kmh 29.96 in1014.6 mb 0.00 in0.0 mm 0.00 in0.0 mm 0.00 in0.0 mm
12:45 AM 32.3°F0.2°C 29.7°F-1.3°C 90% 3.0 mph WSW4.8 kmh WSW 7.0 mph11.3 kmh 29.96 in1014.6 mb 0.00 in0.0 mm 0.00 in0.0 mm 0.00 in0.0 mm
12:50 AM 32.3°F0.2°C 29.7°F-1.3°C 90% 2.0 mph NW3.2 kmh NW 2.0 mph3.2 kmh 29.96 in1014.6 mb 0.00 in0.0 mm 0.00 in0.0 mm 0.00 in0.0 mm
12:55 AM 32.3°F0.2°C 29.7°F-1.3°C 90% 3.0 mph WNW4.8 kmh WNW 7.0 mph11.3 kmh 29.96 in1014.6 mb 0.00 in0.0 mm 0.00 in0.0 mm 0.00 in0.0 mm
01:00 AM 32.3°F0.2°C 29.4°F-1.4°C 89% 4.0 mph W6.4 kmh W 4.0 mph6.4 kmh 29.96 in1014.6 mb 0.00 in0.0 mm 0.00 in0.0 mm 0.00 in0.0 mm
01:05 AM 32.3°F0.2°C 29.4°F-1.4°C 89% 4.0 mph NW6.4 kmh NW 7.0 mph11.3 kmh 29.96 in1014.6 mb 0.00 in0.0 mm 0.00 in0.0 mm 0.00 in0.0 mm
01:10 AM 32.3°F0.2°C 29.4°F-1.4°C 89% 4.0 mph NW6.4 kmh NW 8.0 mph12.9 kmh 29.96 in1014.6 mb 0.00 in0.0 mm 0.00 in0.0 mm 0.00 in0.0 mm
01:15 AM 32.3°F0.2°C 29.4°F-1.4°C 89% 2.0 mph WNW3.2 kmh WNW 3.0 mph4.8 kmh 29.97 in1014.9 mb 0.00 in0.0 mm 0.00 in0.0 mm 0.00 in0.0 mm
01:19 AM 32.3°F0.2°C 29.4°F-1.4°C 89% 1.0 mph WSW1.6 kmh WSW 5.0 mph8.0 kmh 29.97 in1014.9 mb 0.00 in0.0 mm 0.00 in0.0 mm 0.00 in0.0 mm
01:24 AM 32.3°F0.2°C 29.2°F-1.6°C 88% Calm Calm 8.0 mph12.9 kmh 29.98 in1015.2 mb 0.00 in0.0 mm 0.00 in0.0 mm 0.00 in0.0 mm
01:30 AM 32.3°F0.2°C 29.2°F-1.6°C 88% 3.0 mph WNW4.8 kmh WNW 5.0 mph8.0 kmh 29.98 in1015.2 mb 0.00 in0.0 mm 0.00 in0.0 mm 0.00 in0.0 mm
01:35 AM 32.3°F0.2°C 29.2°F-1.6°C 88% 7.0 mph WSW11.3 kmh WSW 7.0 mph11.3 kmh 29.98 in1015.2 mb 0.00 in0.0 mm 0.00 in0.0 mm 0.00 in0.0 mm
01:40 AM 32.4°F0.2°C 29.3°F-1.5°C 88% 3.0 mph WNW4.8 kmh WNW 7.0 mph11.3 kmh 29.98 in1015.2 mb 0.00 in0.0 mm 0.00 in0.0 mm 0.00 in0.0 mm
01:45 AM 32.4°F0.2°C 29.3°F-1.5°C 88% 3.0 mph WSW4.8 kmh WSW 8.0 mph12.9 kmh 29.98 in1015.2 mb 0.00 in0.0 mm 0.00 in0.0 mm 0.00 in0.0 mm
01:50 AM 32.4°F0.2°C 29.3°F-1.5°C 88% 1.0 mph WSW1.6 kmh WSW 6.0 mph9.7 kmh 29.98 in1015.2 mb 0.00 in0.0 mm 0.00 in0.0 mm 0.00 in0.0 mm
01:55 AM 32.4°F0.2°C 29.3°F-1.5°C 88% 5.0 mph NW8.0 kmh NW 6.0 mph9.7 kmh 29.99 in1015.6 mb 0.00 in0.0 mm 0.00 in0.0 mm 0.00 in0.0 mm
02:00 AM 32.4°F0.2°C 29.3°F-1.5°C 88% 2.0 mph W3.2 kmh W 7.0 mph11.3 kmh 29.99 in1015.6 mb 0.00 in0.0 mm 0.00 in0.0 mm 0.00 in0.0 mm
02:05 AM 32.4°F0.2°C 29.3°F-1.5°C 88% Calm Calm 7.0 mph11.3 kmh 29.99 in1015.6 mb 0.00 in0.0 mm 0.00 in0.0 mm 0.00 in0.0 mm
02:10 AM 32.4°F0.2°C 29.3°F-1.5°C 88% 1.0 mph W1.6 kmh W 4.0 mph6.4 kmh 30.00 in1015.9 mb 0.00 in0.0 mm 0.00 in0.0 mm 0.00 in0.0 mm
02:15 AM 32.4°F0.2°C 29.3°F-1.5°C 88% 2.0 mph S3.2 kmh S 5.0 mph8.0 kmh 30.00 in1015.9 mb 0.00 in0.0 mm 0.00 in0.0 mm 0.00 in0.0 mm
02:19 AM 32.4°F0.2°C 29.3°F-1.5°C 88% 7.0 mph W11.3 kmh W 7.0 mph11.3 kmh 30.00 in1015.9 mb 0.00 in0.0 mm 0.00 in0.0 mm 0.00 in0.0 mm
02:25 AM 32.3°F0.2°C 29.2°F-1.6°C 88% 4.0 mph WNW6.4 kmh WNW 7.0 mph11.3 kmh 30.00 in1015.9 mb 0.00 in0.0 mm 0.00 in0.0 mm 0.00 in0.0 mm
02:30 AM 32.3°F0.2°C 29.2°F-1.6°C 88% 1.0 mph W1.6 kmh W 9.0 mph14.5 kmh 30.00 in1015.9 mb 0.00 in0.0 mm 0.00 in0.0 mm 0.00 in0.0 mm
02:35 AM 32.3°F0.2°C 28.9°F-1.7°C 87% 5.0 mph WSW8.0 kmh WSW 8.0 mph12.9 kmh 30.00 in1015.9 mb 0.00 in0.0 mm 0.00 in0.0 mm 0.00 in0.0 mm
02:40 AM 32.3°F0.2°C 28.9°F-1.7°C 87% 10.0 mph SW16.1 kmh SW 10.0 mph16.1 kmh 30.01 in1016.3 mb 0.00 in0.0 mm 0.00 in0.0 mm 0.00 in0.0 mm
02:44 AM 32.3°F0.2°C 28.9°F-1.7°C 87% 5.0 mph WNW8.0 kmh WNW 10.0 mph16.1 kmh 30.01 in1016.3 mb 0.00 in0.0 mm 0.00 in0.0 mm 0.00 in0.0 mm
02:50 AM 32.3°F0.2°C 28.9°F-1.7°C 87% 4.0 mph WNW6.4 kmh WNW 6.0 mph9.7 kmh 30.01 in1016.3 mb 0.00 in0.0 mm 0.00 in0.0 mm 0.00 in0.0 mm
02:55 AM 32.3°F0.2°C 28.9°F-1.7°C 87% 3.0 mph WNW4.8 kmh WNW 7.0 mph11.3 kmh 30.02 in1016.6 mb 0.00 in0.0 mm 0.00 in0.0 mm 0.00 in0.0 mm
03:00 AM 32.2°F0.1°C 28.5°F-1.9°C 86% 4.0 mph W6.4 kmh W 9.0 mph14.5 kmh 30.02 in1016.6 mb 0.00 in0.0 mm 0.00 in0.0 mm 0.00 in0.0 mm
03:05 AM 32.2°F0.1°C 28.5°F-1.9°C 86% 4.0 mph WNW6.4 kmh WNW 5.0 mph8.0 kmh 30.02 in1016.6 mb 0.00 in0.0 mm 0.00 in0.0 mm 0.00 in0.0 mm
03:10 AM 32.2°F0.1°C 28.5°F-1.9°C 86% Calm Calm 5.0 mph8.0 kmh 30.02 in1016.6 mb 0.00 in0.0 mm 0.00 in0.0 mm 0.00 in0.0 mm
03:15 AM 32.2°F0.1°C 28.5°F-1.9°C 86% 4.0 mph W6.4 kmh W 6.0 mph9.7 kmh 30.02 in1016.6 mb 0.00 in0.0 mm 0.00 in0.0 mm 0.00 in0.0 mm
03:20 AM 32.2°F0.1°C 28.8°F-1.8°C 87% 3.0 mph W4.8 kmh W 6.0 mph9.7 kmh 30.03 in1016.9 mb 0.00 in0.0 mm 0.00 in0.0 mm 0.00 in0.0 mm
03:25 AM 32.1°F0.1°C 28.7°F-1.8°C 87% 3.0 mph NW4.8 kmh NW 7.0 mph11.3 kmh 30.02 in1016.6 mb 0.00 in0.0 mm 0.00 in0.0 mm 0.00 in0.0 mm
03:30 AM 32.1°F0.1°C 28.4°F-2.0°C 86% 2.0 mph W3.2 kmh W 7.0 mph11.3 kmh 30.03 in1016.9 mb 0.00 in0.0 mm 0.00 in0.0 mm 0.00 in0.0 mm
03:35 AM 32.1°F0.1°C 28.4°F-2.0°C 86% 2.0 mph WSW3.2 kmh WSW 8.0 mph12.9 kmh 30.03 in1016.9 mb 0.00 in0.0 mm 0.00 in0.0 mm 0.00 in0.0 mm
03:40 AM 32.0°F0.0°C 28.3°F-2.1°C 86% 2.0 mph W3.2 kmh W 8.0 mph12.9 kmh 30.03 in1016.9 mb 0.00 in0.0 mm 0.00 in0.0 mm 0.00 in0.0 mm
03:45 AM 32.0°F0.0°C 28.3°F-2.1°C 86% 3.0 mph W4.8 kmh W 7.0 mph11.3 kmh 30.03 in1016.9 mb 0.00 in0.0 mm 0.00 in0.0 mm 0.00 in0.0 mm
03:50 AM 32.0°F0.0°C 28.0°F-2.2°C 85% 1.0 mph W1.6 kmh W 10.0 mph16.1 kmh 30.04 in1017.3 mb 0.00 in0.0 mm 0.00 in0.0 mm 0.00 in0.0 mm
03:55 AM 32.0°F0.0°C 28.0°F-2.2°C 85% 5.0 mph WNW8.0 kmh WNW 9.0 mph14.5 kmh 30.04 in1017.3 mb 0.00 in0.0 mm 0.00 in0.0 mm 0.00 in0.0 mm
04:00 AM 31.9°F-0.1°C 27.9°F-2.3°C 85% 3.0 mph WNW4.8 kmh WNW 7.0 mph11.3 kmh 30.04 in1017.3 mb 0.00 in0.0 mm 0.00 in0.0 mm 0.00 in0.0 mm
04:05 AM 31.9°F-0.1°C 27.9°F-2.3°C 85% 1.0 mph W1.6 kmh W 4.0 mph6.4 kmh 30.05 in1017.6 mb 0.00 in0.0 mm 0.00 in0.0 mm 0.00 in0.0 mm
04:10 AM 31.9°F-0.1°C 27.9°F-2.3°C 85% 7.0 mph WSW11.3 kmh WSW 10.0 mph16.1 kmh 30.05 in1017.6 mb 0.00 in0.0 mm 0.00 in0.0 mm 0.00 in0.0 mm
04:14 AM 31.8°F-0.1°C 27.8°F-2.3°C 85% 4.0 mph WSW6.4 kmh WSW 8.0 mph12.9 kmh 30.05 in1017.6 mb 0.00 in0.0 mm 0.00 in0.0 mm 0.00 in0.0 mm
04:20 AM 31.7°F-0.2°C 27.7°F-2.4°C 85% 5.0 mph WSW8.0 kmh WSW 11.0 mph17.7 kmh 30.05 in1017.6 mb 0.00 in0.0 mm 0.00 in0.0 mm 0.00 in0.0 mm
04:25 AM 31.7°F-0.2°C 27.4°F-2.6°C 84% 4.0 mph W6.4 kmh W 8.0 mph12.9 kmh 30.05 in1017.6 mb 0.00 in0.0 mm 0.00 in0.0 mm 0.00 in0.0 mm
04:29 AM 31.6°F-0.2°C 27.3°F-2.6°C 84% 2.0 mph WNW3.2 kmh WNW 10.0 mph16.1 kmh 30.05 in1017.6 mb 0.00 in0.0 mm 0.00 in0.0 mm 0.00 in0.0 mm
04:35 AM 31.5°F-0.3°C 27.2°F-2.7°C 84% 9.0 mph SW14.5 kmh SW 9.0 mph14.5 kmh 30.06 in1017.9 mb 0.00 in0.0 mm 0.00 in0.0 mm 0.00 in0.0 mm
04:40 AM 31.4°F-0.3°C 27.1°F-2.7°C 84% 3.0 mph W4.8 kmh W 12.0 mph19.3 kmh 30.06 in1017.9 mb 0.00 in0.0 mm 0.00 in0.0 mm 0.00 in0.0 mm
04:45 AM 31.4°F-0.3°C 26.8°F-2.9°C 83% 4.0 mph W6.4 kmh W 6.0 mph9.7 kmh 30.06 in1017.9 mb 0.00 in0.0 mm 0.00 in0.0 mm 0.00 in0.0 mm
04:50 AM 31.3°F-0.4°C 27.0°F-2.8°C 84% 3.0 mph WSW4.8 kmh WSW 6.0 mph9.7 kmh 30.06 in1017.9 mb 0.00 in0.0 mm 0.00 in0.0 mm 0.00 in0.0 mm
04:55 AM 31.2°F-0.4°C 26.9°F-2.8°C 84% 6.0 mph SW9.7 kmh SW 6.0 mph9.7 kmh 30.06 in1017.9 mb 0.00 in0.0 mm 0.00 in0.0 mm 0.00 in0.0 mm
05:00 AM 31.1°F-0.5°C 26.6°F-3.0°C 83% 4.0 mph NW6.4 kmh NW 10.0 mph16.1 kmh 30.07 in1018.3 mb 0.00 in0.0 mm 0.00 in0.0 mm 0.00 in0.0 mm
05:05 AM 31.1°F-0.5°C 26.3°F-3.2°C 82% 3.0 mph W4.8 kmh W 7.0 mph11.3 kmh 30.06 in1017.9 mb 0.00 in0.0 mm 0.00 in0.0 mm 0.00 in0.0 mm
05:09 AM 31.1°F-0.5°C 26.3°F-3.2°C 82% 8.0 mph NW12.9 kmh NW 8.0 mph12.9 kmh 30.07 in1018.3 mb 0.00 in0.0 mm 0.00 in0.0 mm 0.00 in0.0 mm
05:15 AM 31.1°F-0.5°C 26.3°F-3.2°C 82% 4.0 mph WSW6.4 kmh WSW 7.0 mph11.3 kmh 30.07 in1018.3 mb 0.00 in0.0 mm 0.00 in0.0 mm 0.00 in0.0 mm
05:19 AM 31.0°F-0.6°C 26.2°F-3.2°C 82% 2.0 mph WNW3.2 kmh WNW 9.0 mph14.5 kmh 30.07 in1018.3 mb 0.00 in0.0 mm 0.00 in0.0 mm 0.00 in0.0 mm
05:25 AM 31.1°F-0.5°C 26.3°F-3.2°C 82% 5.0 mph NW8.0 kmh NW 8.0 mph12.9 kmh 30.07 in1018.3 mb 0.00 in0.0 mm 0.00 in0.0 mm 0.00 in0.0 mm
05:29 AM 31.0°F-0.6°C 26.2°F-3.2°C 82% 1.0 mph WNW1.6 kmh WNW 4.0 mph6.4 kmh 30.07 in1018.3 mb 0.00 in0.0 mm 0.00 in0.0 mm 0.00 in0.0 mm
05:35 AM 31.0°F-0.6°C 26.2°F-3.2°C 82% 3.0 mph NW4.8 kmh NW 10.0 mph16.1 kmh 30.07 in1018.3 mb 0.00 in0.0 mm 0.00 in0.0 mm 0.00 in0.0 mm
05:39 AM 31.0°F-0.6°C 26.2°F-3.2°C 82% 3.0 mph W4.8 kmh W 7.0 mph11.3 kmh 30.07 in1018.3 mb 0.00 in0.0 mm 0.00 in0.0 mm 0.00 in0.0 mm
05:44 AM 30.9°F-0.6°C 26.1°F-3.3°C 82% 2.0 mph WNW3.2 kmh WNW 4.0 mph6.4 kmh 30.07 in1018.3 mb 0.00 in0.0 mm 0.00 in0.0 mm 0.00 in0.0 mm
05:49 AM 30.9°F-0.6°C 26.1°F-3.3°C 82% 2.0 mph W3.2 kmh W 7.0 mph11.3 kmh 30.07 in1018.3 mb 0.00 in0.0 mm 0.00 in0.0 mm 0.00 in0.0 mm
05:55 AM 30.9°F-0.6°C 26.4°F-3.1°C 83% 6.0 mph WNW9.7 kmh WNW 6.0 mph9.7 kmh 30.07 in1018.3 mb 0.00 in0.0 mm 0.00 in0.0 mm 0.00 in0.0 mm
06:00 AM 30.8°F-0.7°C 26.0°F-3.3°C 82% 5.0 mph NW8.0 kmh NW 7.0 mph11.3 kmh 30.08 in1018.6 mb 0.00 in0.0 mm 0.00 in0.0 mm 0.00 in0.0 mm
06:05 AM 30.8°F-0.7°C 26.0°F-3.3°C 82% 5.0 mph WNW8.0 kmh WNW 5.0 mph8.0 kmh 30.08 in1018.6 mb 0.00 in0.0 mm 0.00 in0.0 mm 0.00 in0.0 mm
06:09 AM 30.8°F-0.7°C 26.0°F-3.3°C 82% Calm Calm 10.0 mph16.1 kmh 30.08 in1018.6 mb 0.00 in0.0 mm 0.00 in0.0 mm 0.00 in0.0 mm
06:15 AM 30.8°F-0.7°C 26.0°F-3.3°C 82% 3.0 mph W4.8 kmh W 10.0 mph16.1 kmh 30.08 in1018.6 mb 0.00 in0.0 mm 0.00 in0.0 mm 0.00 in0.0 mm
06:20 AM 30.8°F-0.7°C 26.0°F-3.3°C 82% 3.0 mph W4.8 kmh W 11.0 mph17.7 kmh 30.08 in1018.6 mb 0.00 in0.0 mm 0.00 in0.0 mm 0.00 in0.0 mm
06:25 AM 30.7°F-0.7°C 25.6°F-3.6°C 81% 1.0 mph WSW1.6 kmh WSW 11.0 mph17.7 kmh 30.09 in1019.0 mb 0.00 in0.0 mm 0.00 in0.0 mm 0.00 in0.0 mm
06:30 AM 30.7°F-0.7°C 25.6°F-3.6°C 81% 3.0 mph WNW4.8 kmh WNW 8.0 mph12.9 kmh 30.09 in1019.0 mb 0.00 in0.0 mm 0.00 in0.0 mm 0.00 in0.0 mm
06:34 AM 30.7°F-0.7°C 25.6°F-3.6°C 81% 2.0 mph W3.2 kmh W 4.0 mph6.4 kmh 30.09 in1019.0 mb 0.00 in0.0 mm 0.00 in0.0 mm 0.00 in0.0 mm
06:39 AM 30.6°F-0.8°C 25.5°F-3.6°C 81% 4.0 mph W6.4 kmh W 7.0 mph11.3 kmh 30.09 in1019.0 mb 0.00 in0.0 mm 0.00 in0.0 mm 0.00 in0.0 mm
06:45 AM 30.6°F-0.8°C 25.5°F-3.6°C 81% 1.0 mph WSW1.6 kmh WSW 9.0 mph14.5 kmh 30.10 in1019.3 mb 0.00 in0.0 mm 0.00 in0.0 mm 0.00 in0.0 mm
06:50 AM 30.6°F-0.8°C 25.5°F-3.6°C 81% 7.0 mph W11.3 kmh W 10.0 mph16.1 kmh 30.10 in1019.3 mb 0.00 in0.0 mm 0.00 in0.0 mm 0.00 in0.0 mm
06:55 AM 30.6°F-0.8°C 25.5°F-3.6°C 81% 4.0 mph SW6.4 kmh SW 6.0 mph9.7 kmh 30.10 in1019.3 mb 0.00 in0.0 mm 0.00 in0.0 mm 0.00 in0.0 mm
07:00 AM 30.5°F-0.8°C 25.4°F-3.7°C 81% 1.0 mph WNW1.6 kmh WNW 7.0 mph11.3 kmh 30.10 in1019.3 mb 0.00 in0.0 mm 0.00 in0.0 mm 0.00 in0.0 mm
07:05 AM 30.5°F-0.8°C 25.4°F-3.7°C 81% 2.0 mph WNW3.2 kmh WNW 8.0 mph12.9 kmh 30.11 in1019.6 mb 0.00 in0.0 mm 0.00 in0.0 mm 0.00 in0.0 mm
07:09 AM 30.5°F-0.8°C 25.4°F-3.7°C 81% 7.0 mph WNW11.3 kmh WNW 9.0 mph14.5 kmh 30.11 in1019.6 mb 0.00 in0.0 mm 0.00 in0.0 mm 0.00 in0.0 mm
07:15 AM 30.5°F-0.8°C 25.4°F-3.7°C 81% 2.0 mph W3.2 kmh W 4.0 mph6.4 kmh 30.11 in1019.6 mb 0.00 in0.0 mm 0.00 in0.0 mm 0.00 in0.0 mm
07:19 AM 30.5°F-0.8°C 25.7°F-3.5°C 82% 3.0 mph W4.8 kmh W 4.0 mph6.4 kmh 30.11 in1019.6 mb 0.00 in0.0 mm 0.00 in0.0 mm 0.00 in0.0 mm
07:25 AM 30.5°F-0.8°C 25.7°F-3.5°C 82% 6.0 mph W9.7 kmh W 8.0 mph12.9 kmh 30.12 in1020.0 mb 0.00 in0.0 mm 0.00 in0.0 mm 0.00 in0.0 mm
07:30 AM 30.4°F-0.9°C 25.3°F-3.7°C 81% 2.0 mph WSW3.2 kmh WSW 8.0 mph12.9 kmh 30.12 in1020.0 mb 0.00 in0.0 mm 0.00 in0.0 mm 0.00 in0.0 mm
07:35 AM 30.3°F-0.9°C 25.2°F-3.8°C 81% 2.0 mph WNW3.2 kmh WNW 10.0 mph16.1 kmh 30.12 in1020.0 mb 0.00 in0.0 mm 0.00 in0.0 mm 0.00 in0.0 mm
07:39 AM 30.3°F-0.9°C 25.2°F-3.8°C 81% 8.0 mph WSW12.9 kmh WSW 8.0 mph12.9 kmh 30.13 in1020.3 mb 0.00 in0.0 mm 0.00 in0.0 mm 0.00 in0.0 mm
07:45 AM 30.3°F-0.9°C 25.2°F-3.8°C 81% 5.0 mph WSW8.0 kmh WSW 13.0 mph20.9 kmh 30.13 in1020.3 mb 0.00 in0.0 mm 0.00 in0.0 mm 0.00 in0.0 mm
07:49 AM 30.2°F-1.0°C 24.8°F-4.0°C 80% 4.0 mph WSW6.4 kmh WSW 11.0 mph17.7 kmh 30.13 in1020.3 mb 0.00 in0.0 mm 0.00 in0.0 mm 0.00 in0.0 mm
07:55 AM 30.1°F-1.1°C 24.4°F-4.2°C 79% 4.0 mph W6.4 kmh W 10.0 mph16.1 kmh 30.14 in1020.7 mb 0.00 in0.0 mm 0.00 in0.0 mm 0.00 in0.0 mm
08:00 AM 30.1°F-1.1°C 24.4°F-4.2°C 79% 9.0 mph SW14.5 kmh SW 9.0 mph14.5 kmh 30.14 in1020.7 mb 0.00 in0.0 mm 0.00 in0.0 mm 0.00 in0.0 mm
08:05 AM 30.1°F-1.1°C 24.7°F-4.1°C 80% 1.0 mph WSW1.6 kmh WSW 9.0 mph14.5 kmh 30.14 in1020.7 mb 0.00 in0.0 mm 0.00 in0.0 mm 0.00 in0.0 mm
08:10 AM 30.0°F-1.1°C 24.6°F-4.1°C 80% 3.0 mph WSW4.8 kmh WSW 4.0 mph6.4 kmh 30.15 in1021.0 mb 0.00 in0.0 mm 0.00 in0.0 mm 0.00 in0.0 mm
08:15 AM 29.9°F-1.2°C 24.2°F-4.3°C 79% 4.0 mph WNW6.4 kmh WNW 6.0 mph9.7 kmh 30.15 in1021.0 mb 0.00 in0.0 mm 0.00 in0.0 mm 0.00 in0.0 mm
08:20 AM 29.9°F-1.2°C 24.2°F-4.3°C 79% 2.0 mph WNW3.2 kmh WNW 8.0 mph12.9 kmh 30.15 in1021.0 mb 0.00 in0.0 mm 0.00 in0.0 mm 0.00 in0.0 mm
08:24 AM 29.9°F-1.2°C 24.2°F-4.3°C 79% 1.0 mph W1.6 kmh W 8.0 mph12.9 kmh 30.16 in1021.3 mb 0.00 in0.0 mm 0.00 in0.0 mm 0.00 in0.0 mm
08:30 AM 29.8°F-1.2°C 24.1°F-4.4°C 79% 5.0 mph NW8.0 kmh NW 7.0 mph11.3 kmh 30.16 in1021.3 mb 0.00 in0.0 mm 0.00 in0.0 mm 0.00 in0.0 mm
08:35 AM 29.8°F-1.2°C 23.8°F-4.6°C 78% Calm Calm 7.0 mph11.3 kmh 30.16 in1021.3 mb 0.00 in0.0 mm 0.00 in0.0 mm 0.00 in0.0 mm
08:40 AM 29.8°F-1.2°C 24.1°F-4.4°C 79% 2.0 mph W3.2 kmh W 7.0 mph11.3 kmh 30.16 in1021.3 mb 0.00 in0.0 mm 0.00 in0.0 mm 0.00 in0.0 mm
08:44 AM 29.7°F-1.3°C 23.7°F-4.6°C 78% 4.0 mph WNW6.4 kmh WNW 9.0 mph14.5 kmh 30.17 in1021.7 mb 0.00 in0.0 mm 0.00 in0.0 mm 0.00 in0.0 mm
08:49 AM 29.7°F-1.3°C 23.7°F-4.6°C 78% 2.0 mph W3.2 kmh W 5.0 mph8.0 kmh 30.17 in1021.7 mb 0.00 in0.0 mm 0.00 in0.0 mm 0.00 in0.0 mm
08:55 AM 29.7°F-1.3°C 24.0°F-4.4°C 79% 5.0 mph SW8.0 kmh SW 8.0 mph12.9 kmh 30.17 in1021.7 mb 0.00 in0.0 mm 0.00 in0.0 mm 0.00 in0.0 mm
09:00 AM 29.7°F-1.3°C 24.0°F-4.4°C 79% 2.0 mph SW3.2 kmh SW 5.0 mph8.0 kmh 30.17 in1021.7 mb 0.00 in0.0 mm 0.00 in0.0 mm 0.00 in0.0 mm
09:05 AM 29.7°F-1.3°C 24.0°F-4.4°C 79% 4.0 mph WSW6.4 kmh WSW 10.0 mph16.1 kmh 30.17 in1021.7 mb 0.00 in0.0 mm 0.00 in0.0 mm 0.00 in0.0 mm
09:09 AM 29.7°F-1.3°C 24.0°F-4.4°C 79% 4.0 mph W6.4 kmh W 6.0 mph9.7 kmh 30.18 in1022.0 mb 0.00 in0.0 mm 0.00 in0.0 mm 0.00 in0.0 mm
09:15 AM 29.6°F-1.3°C 23.6°F-4.7°C 78% 2.0 mph W3.2 kmh W 7.0 mph11.3 kmh 30.18 in1022.0 mb 0.00 in0.0 mm 0.00 in0.0 mm 0.00 in0.0 mm
09:20 AM 29.6°F-1.3°C 23.9°F-4.5°C 79% 5.0 mph WSW8.0 kmh WSW 7.0 mph11.3 kmh 30.19 in1022.4 mb 0.00 in0.0 mm 0.00 in0.0 mm 0.00 in0.0 mm
09:25 AM 29.6°F-1.3°C 23.9°F-4.5°C 79% 7.0 mph W11.3 kmh W 11.0 mph17.7 kmh 30.19 in1022.4 mb 0.00 in0.0 mm 0.00 in0.0 mm 0.00 in0.0 mm
09:29 AM 29.6°F-1.3°C 23.9°F-4.5°C 79% 7.0 mph WNW11.3 kmh WNW 8.0 mph12.9 kmh 30.20 in1022.7 mb 0.00 in0.0 mm 0.00 in0.0 mm 0.00 in0.0 mm
09:35 AM 29.6°F-1.3°C 23.9°F-4.5°C 79% 7.0 mph W11.3 kmh W 7.0 mph11.3 kmh 30.20 in1022.7 mb 0.00 in0.0 mm 0.00 in0.0 mm 0.00 in0.0 mm
09:40 AM 29.6°F-1.3°C 23.9°F-4.5°C 79% 5.0 mph SW8.0 kmh SW 6.0 mph9.7 kmh 30.21 in1023.0 mb 0.00 in0.0 mm 0.00 in0.0 mm 0.00 in0.0 mm
09:45 AM 29.6°F-1.3°C 24.2°F-4.3°C 80% 4.0 mph WNW6.4 kmh WNW 7.0 mph11.3 kmh 30.21 in1023.0 mb 0.00 in0.0 mm 0.00 in0.0 mm 0.00 in0.0 mm
09:50 AM 29.7°F-1.3°C 24.3°F-4.3°C 80% 7.0 mph NW11.3 kmh NW 7.0 mph11.3 kmh 30.22 in1023.4 mb 0.00 in0.0 mm 0.00 in0.0 mm 0.00 in0.0 mm
09:55 AM 29.7°F-1.3°C 24.3°F-4.3°C 80% 3.0 mph W4.8 kmh W 12.0 mph19.3 kmh 30.22 in1023.4 mb 0.00 in0.0 mm 0.00 in0.0 mm 0.00 in0.0 mm
10:00 AM 29.7°F-1.3°C 24.3°F-4.3°C 80% 3.0 mph WSW4.8 kmh WSW 9.0 mph14.5 kmh 30.22 in1023.4 mb 0.00 in0.0 mm 0.00 in0.0 mm 0.00 in0.0 mm
10:05 AM 29.7°F-1.3°C 24.3°F-4.3°C 80% 1.0 mph W1.6 kmh W 8.0 mph12.9 kmh 30.23 in1023.7 mb 0.00 in0.0 mm 0.00 in0.0 mm 0.00 in0.0 mm
10:10 AM 29.7°F-1.3°C 24.6°F-4.1°C 81% 4.0 mph WNW6.4 kmh WNW 9.0 mph14.5 kmh 30.23 in1023.7 mb 0.00 in0.0 mm 0.00 in0.0 mm 0.00 in0.0 mm
10:15 AM 29.7°F-1.3°C 24.6°F-4.1°C 81% 2.0 mph W3.2 kmh W 7.0 mph11.3 kmh 30.23 in1023.7 mb 0.00 in0.0 mm 0.00 in0.0 mm 0.00 in0.0 mm
10:20 AM 29.7°F-1.3°C 24.6°F-4.1°C 81% 4.0 mph WSW6.4 kmh WSW 7.0 mph11.3 kmh 30.24 in1024.0 mb 0.00 in0.0 mm 0.00 in0.0 mm 0.00 in0.0 mm
10:25 AM 29.7°F-1.3°C 24.9°F-3.9°C 82% 2.0 mph WSW3.2 kmh WSW 7.0 mph11.3 kmh 30.24 in1024.0 mb 0.00 in0.0 mm 0.00 in0.0 mm 0.00 in0.0 mm
10:30 AM 29.7°F-1.3°C 24.9°F-3.9°C 82% 2.0 mph W3.2 kmh W 7.0 mph11.3 kmh 30.25 in1024.4 mb 0.00 in0.0 mm 0.00 in0.0 mm 0.00 in0.0 mm
10:35 AM 29.7°F-1.3°C 25.2°F-3.8°C 83% Calm Calm 2.0 mph3.2 kmh 30.24 in1024.0 mb 0.00 in0.0 mm 0.00 in0.0 mm 0.00 in0.0 mm
10:40 AM 29.7°F-1.3°C 25.2°F-3.8°C 83% Calm Calm 4.0 mph6.4 kmh 30.25 in1024.4 mb 0.00 in0.0 mm 0.00 in0.0 mm 0.00 in0.0 mm
10:45 AM 29.7°F-1.3°C 25.2°F-3.8°C 83% 4.0 mph W6.4 kmh W 7.0 mph11.3 kmh 30.25 in1024.4 mb 0.00 in0.0 mm 0.00 in0.0 mm 0.00 in0.0 mm
10:50 AM 29.7°F-1.3°C 25.5°F-3.6°C 84% 4.0 mph WSW6.4 kmh WSW 9.0 mph14.5 kmh 30.25 in1024.4 mb 0.00 in0.0 mm 0.00 in0.0 mm 0.00 in0.0 mm
10:55 AM 29.7°F-1.3°C 25.5°F-3.6°C 84% 4.0 mph NW6.4 kmh NW 8.0 mph12.9 kmh 30.25 in1024.4 mb 0.00 in0.0 mm 0.00 in0.0 mm 0.00 in0.0 mm
11:00 AM 29.7°F-1.3°C 25.5°F-3.6°C 84% 3.0 mph W4.8 kmh W 6.0 mph9.7 kmh 30.25 in1024.4 mb 0.00 in0.0 mm 0.00 in0.0 mm 0.00 in0.0 mm
11:04 AM 29.9°F-1.2°C 26.0°F-3.3°C 85% 1.0 mph W1.6 kmh W 7.0 mph11.3 kmh 30.26 in1024.7 mb 0.00 in0.0 mm 0.00 in0.0 mm 0.00 in0.0 mm
11:10 AM 29.9°F-1.2°C 26.0°F-3.3°C 85% Calm Calm 10.0 mph16.1 kmh 30.26 in1024.7 mb 0.00 in0.0 mm 0.00 in0.0 mm 0.00 in0.0 mm
11:15 AM 30.1°F-1.1°C 26.1°F-3.3°C 85% 1.0 mph NW1.6 kmh NW 2.0 mph3.2 kmh 30.26 in1024.7 mb 0.00 in0.0 mm 0.00 in0.0 mm 0.00 in0.0 mm
11:20 AM 30.2°F-1.0°C 26.2°F-3.2°C 85% Calm Calm 6.0 mph9.7 kmh 30.27 in1025.1 mb 0.00 in0.0 mm 0.00 in0.0 mm 0.00 in0.0 mm
11:25 AM 30.3°F-0.9°C 26.1°F-3.3°C 84% 2.0 mph WNW3.2 kmh WNW 9.0 mph14.5 kmh 30.26 in1024.7 mb 0.00 in0.0 mm 0.00 in0.0 mm 0.00 in0.0 mm
11:30 AM 30.3°F-0.9°C 26.1°F-3.3°C 84% Calm Calm 4.0 mph6.4 kmh 30.27 in1025.1 mb 0.00 in0.0 mm 0.00 in0.0 mm 0.00 in0.0 mm
11:35 AM 30.4°F-0.9°C 26.2°F-3.2°C 84% 7.0 mph NW11.3 kmh NW 10.0 mph16.1 kmh 30.27 in1025.1 mb 0.00 in0.0 mm 0.00 in0.0 mm 0.00 in0.0 mm
11:40 AM 30.4°F-0.9°C 25.9°F-3.4°C 83% 4.0 mph NW6.4 kmh NW 6.0 mph9.7 kmh 30.28 in1025.4 mb 0.00 in0.0 mm 0.00 in0.0 mm 0.00 in0.0 mm
11:45 AM 30.5°F-0.8°C 26.0°F-3.3°C 83% 3.0 mph NW4.8 kmh NW 11.0 mph17.7 kmh 30.28 in1025.4 mb 0.00 in0.0 mm 0.00 in0.0 mm 0.00 in0.0 mm
11:50 AM 30.6°F-0.8°C 26.1°F-3.3°C 83% 3.0 mph WNW4.8 kmh WNW 7.0 mph11.3 kmh 30.28 in1025.4 mb 0.00 in0.0 mm 0.00 in0.0 mm 0.00 in0.0 mm
11:55 AM 30.7°F-0.7°C 25.9°F-3.4°C 82% 4.0 mph NW6.4 kmh NW 8.0 mph12.9 kmh 30.29 in1025.7 mb 0.00 in0.0 mm 0.00 in0.0 mm 0.00 in0.0 mm
12:00 PM 30.7°F-0.7°C 25.9°F-3.4°C 82% Calm Calm 7.0 mph11.3 kmh 30.29 in1025.7 mb 0.00 in0.0 mm 0.00 in0.0 mm 0.00 in0.0 mm
12:04 PM 30.8°F-0.7°C 26.0°F-3.3°C 82% Calm Calm 7.0 mph11.3 kmh 30.30 in1026.1 mb 0.00 in0.0 mm 0.00 in0.0 mm 0.00 in0.0 mm
12:10 PM 30.9°F-0.6°C 26.1°F-3.3°C 82% 4.0 mph NW6.4 kmh NW 4.0 mph6.4 kmh 30.30 in1026.1 mb 0.00 in0.0 mm 0.00 in0.0 mm 0.00 in0.0 mm
12:15 PM 31.1°F-0.5°C 26.3°F-3.2°C 82% 3.0 mph WNW4.8 kmh WNW 7.0 mph11.3 kmh 30.30 in1026.1 mb 0.00 in0.0 mm 0.00 in0.0 mm 0.00 in0.0 mm
12:20 PM 31.1°F-0.5°C 26.0°F-3.3°C 81% 4.0 mph WSW6.4 kmh WSW 8.0 mph12.9 kmh 30.31 in1026.4 mb 0.00 in0.0 mm 0.00 in0.0 mm 0.00 in0.0 mm
12:25 PM 31.0°F-0.6°C 25.9°F-3.4°C 81% Calm Calm 4.0 mph6.4 kmh 30.31 in1026.4 mb 0.00 in0.0 mm 0.00 in0.0 mm 0.00 in0.0 mm
12:30 PM 31.1°F-0.5°C 26.0°F-3.3°C 81% 3.0 mph NNW4.8 kmh NNW 7.0 mph11.3 kmh 30.32 in1026.8 mb 0.00 in0.0 mm 0.00 in0.0 mm 0.00 in0.0 mm
12:34 PM 31.1°F-0.5°C 26.0°F-3.3°C 81% 1.0 mph WNW1.6 kmh WNW 9.0 mph14.5 kmh 30.31 in1026.4 mb 0.00 in0.0 mm 0.00 in0.0 mm 0.00 in0.0 mm
12:40 PM 31.0°F-0.6°C 25.6°F-3.6°C 80% 2.0 mph W3.2 kmh W 9.0 mph14.5 kmh 30.31 in1026.4 mb 0.00 in0.0 mm 0.00 in0.0 mm 0.00 in0.0 mm
12:45 PM 31.0°F-0.6°C 25.6°F-3.6°C 80% 2.0 mph NW3.2 kmh NW 8.0 mph12.9 kmh 30.32 in1026.8 mb 0.00 in0.0 mm 0.00 in0.0 mm 0.00 in0.0 mm
12:50 PM 31.0°F-0.6°C 25.9°F-3.4°C 81% 3.0 mph WNW4.8 kmh WNW 6.0 mph9.7 kmh 30.32 in1026.8 mb 0.00 in0.0 mm 0.00 in0.0 mm 0.00 in0.0 mm
12:55 PM 31.1°F-0.5°C 26.0°F-3.3°C 81% 5.0 mph NW8.0 kmh NW 5.0 mph8.0 kmh 30.32 in1026.8 mb 0.00 in0.0 mm 0.00 in0.0 mm 0.00 in0.0 mm
12:59 PM 31.0°F-0.6°C 25.9°F-3.4°C 81% 6.0 mph NW9.7 kmh NW 8.0 mph12.9 kmh 30.33 in1027.1 mb 0.00 in0.0 mm 0.00 in0.0 mm 0.00 in0.0 mm
01:05 PM 30.8°F-0.7°C 25.4°F-3.7°C 80% 3.0 mph NW4.8 kmh NW 8.0 mph12.9 kmh 30.33 in1027.1 mb 0.00 in0.0 mm 0.00 in0.0 mm 0.00 in0.0 mm
01:10 PM 30.8°F-0.7°C 25.7°F-3.5°C 81% 2.0 mph NW3.2 kmh NW 8.0 mph12.9 kmh 30.33 in1027.1 mb 0.00 in0.0 mm 0.00 in0.0 mm 0.00 in0.0 mm
01:15 PM 30.7°F-0.7°C 25.6°F-3.6°C 81% 6.0 mph N9.7 kmh N 9.0 mph14.5 kmh 30.33 in1027.1 mb 0.00 in0.0 mm 0.00 in0.0 mm 0.00 in0.0 mm
01:20 PM 30.6°F-0.8°C 25.5°F-3.6°C 81% 3.0 mph NW4.8 kmh NW 7.0 mph11.3 kmh 30.34 in1027.4 mb 0.00 in0.0 mm 0.00 in0.0 mm 0.00 in0.0 mm
01:25 PM 30.7°F-0.7°C 25.6°F-3.6°C 81% 3.0 mph NNW4.8 kmh NNW 7.0 mph11.3 kmh 30.34 in1027.4 mb 0.00 in0.0 mm 0.00 in0.0 mm 0.00 in0.0 mm
01:30 PM 30.6°F-0.8°C 25.5°F-3.6°C 81% 5.0 mph WNW8.0 kmh WNW 8.0 mph12.9 kmh 30.35 in1027.8 mb 0.00 in0.0 mm 0.00 in0.0 mm 0.00 in0.0 mm
01:35 PM 30.6°F-0.8°C 25.5°F-3.6°C 81% 1.0 mph NW1.6 kmh NW 6.0 mph9.7 kmh 30.35 in1027.8 mb 0.00 in0.0 mm 0.00 in0.0 mm 0.00 in0.0 mm
01:39 PM 30.5°F-0.8°C 25.4°F-3.7°C 81% 1.0 mph NW1.6 kmh NW 9.0 mph14.5 kmh 30.35 in1027.8 mb 0.00 in0.0 mm 0.00 in0.0 mm 0.00 in0.0 mm
01:45 PM 30.5°F-0.8°C 25.4°F-3.7°C 81% 2.0 mph NW3.2 kmh NW 8.0 mph12.9 kmh 30.36 in1028.1 mb 0.00 in0.0 mm 0.00 in0.0 mm 0.00 in0.0 mm
01:50 PM 30.6°F-0.8°C 25.5°F-3.6°C 81% 5.0 mph NW8.0 kmh NW 9.0 mph14.5 kmh 30.36 in1028.1 mb 0.00 in0.0 mm 0.00 in0.0 mm 0.00 in0.0 mm
01:55 PM 30.7°F-0.7°C 25.6°F-3.6°C 81% 2.0 mph NNW3.2 kmh NNW 6.0 mph9.7 kmh 30.36 in1028.1 mb 0.00 in0.0 mm 0.00 in0.0 mm 0.00 in0.0 mm
01:59 PM 31.0°F-0.6°C 25.9°F-3.4°C 81% Calm Calm 6.0 mph9.7 kmh 30.36 in1028.1 mb 0.00 in0.0 mm 0.00 in0.0 mm 0.00 in0.0 mm
02:05 PM 31.2°F-0.4°C 25.8°F-3.4°C 80% 1.0 mph NW1.6 kmh NW 9.0 mph14.5 kmh 30.36 in1028.1 mb 0.00 in0.0 mm 0.00 in0.0 mm 0.00 in0.0 mm
02:09 PM 31.2°F-0.4°C 25.8°F-3.4°C 80% 2.0 mph N3.2 kmh N 6.0 mph9.7 kmh 30.36 in1028.1 mb 0.00 in0.0 mm 0.00 in0.0 mm 0.00 in0.0 mm
02:15 PM 31.0°F-0.6°C 25.0°F-3.9°C 78% 3.0 mph NNW4.8 kmh NNW 9.0 mph14.5 kmh 30.36 in1028.1 mb 0.00 in0.0 mm 0.00 in0.0 mm 0.00 in0.0 mm
02:20 PM 31.0°F-0.6°C 25.3°F-3.7°C 79% 2.0 mph NNW3.2 kmh NNW 5.0 mph8.0 kmh 30.36 in1028.1 mb 0.00 in0.0 mm 0.00 in0.0 mm 0.00 in0.0 mm
02:25 PM 31.2°F-0.4°C 25.5°F-3.6°C 79% 5.0 mph NNW8.0 kmh NNW 5.0 mph8.0 kmh 30.36 in1028.1 mb 0.00 in0.0 mm 0.00 in0.0 mm 0.00 in0.0 mm
02:29 PM 31.4°F-0.3°C 25.7°F-3.5°C 79% 3.0 mph NW4.8 kmh NW 5.0 mph8.0 kmh 30.36 in1028.1 mb 0.00 in0.0 mm 0.00 in0.0 mm 0.00 in0.0 mm
02:35 PM 31.3°F-0.4°C 25.6°F-3.6°C 79% 8.0 mph NW12.9 kmh NW 8.0 mph12.9 kmh 30.37 in1028.4 mb 0.00 in0.0 mm 0.00 in0.0 mm 0.00 in0.0 mm
02:39 PM 30.8°F-0.7°C 25.7°F-3.5°C 81% 2.0 mph NNW3.2 kmh NNW 6.0 mph9.7 kmh 30.37 in1028.4 mb 0.00 in0.0 mm 0.00 in0.0 mm 0.00 in0.0 mm
02:45 PM 30.5°F-0.8°C 25.7°F-3.5°C 82% 4.0 mph NW6.4 kmh NW 5.0 mph8.0 kmh 30.37 in1028.4 mb 0.00 in0.0 mm 0.00 in0.0 mm 0.00 in0.0 mm
02:50 PM 30.5°F-0.8°C 25.4°F-3.7°C 81% 1.0 mph NW1.6 kmh NW 6.0 mph9.7 kmh 30.37 in1028.4 mb 0.00 in0.0 mm 0.00 in0.0 mm 0.00 in0.0 mm
02:55 PM 30.8°F-0.7°C 25.7°F-3.5°C 81% 4.0 mph NNW6.4 kmh NNW 5.0 mph8.0 kmh 30.38 in1028.8 mb 0.00 in0.0 mm 0.00 in0.0 mm 0.00 in0.0 mm
02:59 PM 31.0°F-0.6°C 25.3°F-3.7°C 79% Calm Calm 5.0 mph8.0 kmh 30.37 in1028.4 mb 0.00 in0.0 mm 0.00 in0.0 mm 0.00 in0.0 mm
03:05 PM 31.3°F-0.4°C 25.6°F-3.6°C 79% 3.0 mph NW4.8 kmh NW 5.0 mph8.0 kmh 30.38 in1028.8 mb 0.00 in0.0 mm 0.00 in0.0 mm 0.00 in0.0 mm
03:10 PM 31.5°F-0.3°C 25.4°F-3.7°C 78% 5.0 mph NNW8.0 kmh NNW 8.0 mph12.9 kmh 30.38 in1028.8 mb 0.00 in0.0 mm 0.00 in0.0 mm 0.00 in0.0 mm
03:15 PM 31.5°F-0.3°C 24.5°F-4.2°C 75% 4.0 mph NW6.4 kmh NW 8.0 mph12.9 kmh 30.38 in1028.8 mb 0.00 in0.0 mm 0.00 in0.0 mm 0.00 in0.0 mm
03:19 PM 31.4°F-0.3°C 24.1°F-4.4°C 74% 4.0 mph NNW6.4 kmh NNW 9.0 mph14.5 kmh 30.39 in1029.1 mb 0.00 in0.0 mm 0.00 in0.0 mm 0.00 in0.0 mm
03:25 PM 31.1°F-0.5°C 24.4°F-4.2°C 76% 4.0 mph NNW6.4 kmh NNW 9.0 mph14.5 kmh 30.39 in1029.1 mb 0.00 in0.0 mm 0.00 in0.0 mm 0.00 in0.0 mm
03:30 PM 30.8°F-0.7°C 24.8°F-4.0°C 78% Calm Calm 6.0 mph9.7 kmh 30.39 in1029.1 mb 0.00 in0.0 mm 0.00 in0.0 mm 0.00 in0.0 mm
03:35 PM 30.7°F-0.7°C 24.4°F-4.2°C 77% 2.0 mph NW3.2 kmh NW 5.0 mph8.0 kmh 30.39 in1029.1 mb 0.00 in0.0 mm 0.00 in0.0 mm 0.00 in0.0 mm
03:39 PM 30.7°F-0.7°C 24.4°F-4.2°C 77% 1.0 mph NW1.6 kmh NW 5.0 mph8.0 kmh 30.39 in1029.1 mb 0.00 in0.0 mm 0.00 in0.0 mm 0.00 in0.0 mm
03:45 PM 30.8°F-0.7°C 22.9°F-5.1°C 72% 5.0 mph NW8.0 kmh NW 8.0 mph12.9 kmh 30.39 in1029.1 mb 0.00 in0.0 mm 0.00 in0.0 mm 0.00 in0.0 mm
03:49 PM 30.9°F-0.6°C 22.3°F-5.4°C 70% 4.0 mph NW6.4 kmh NW 7.0 mph11.3 kmh 30.39 in1029.1 mb 0.00 in0.0 mm 0.00 in0.0 mm 0.00 in0.0 mm
03:55 PM 31.0°F-0.6°C 22.0°F-5.6°C 69% 3.0 mph NNW4.8 kmh NNW 6.0 mph9.7 kmh 30.39 in1029.1 mb 0.00 in0.0 mm 0.00 in0.0 mm 0.00 in0.0 mm
03:59 PM 31.2°F-0.4°C 21.9°F-5.6°C 68% 4.0 mph NW6.4 kmh NW 8.0 mph12.9 kmh 30.40 in1029.5 mb 0.00 in0.0 mm 0.00 in0.0 mm 0.00 in0.0 mm
04:05 PM 31.4°F-0.3°C 22.1°F-5.5°C 68% 6.0 mph NW9.7 kmh NW 6.0 mph9.7 kmh 30.39 in1029.1 mb 0.00 in0.0 mm 0.00 in0.0 mm 0.00 in0.0 mm
04:10 PM 31.5°F-0.3°C 21.8°F-5.7°C 67% 4.0 mph NW6.4 kmh NW 9.0 mph14.5 kmh 30.40 in1029.5 mb 0.00 in0.0 mm 0.00 in0.0 mm 0.00 in0.0 mm
04:15 PM 31.7°F-0.2°C 22.0°F-5.6°C 67% 5.0 mph N8.0 kmh N 9.0 mph14.5 kmh 30.40 in1029.5 mb 0.00 in0.0 mm 0.00 in0.0 mm 0.00 in0.0 mm
04:20 PM 31.9°F-0.1°C 21.9°F-5.6°C 66% 3.0 mph NW4.8 kmh NW 8.0 mph12.9 kmh 30.40 in1029.5 mb 0.00 in0.0 mm 0.00 in0.0 mm 0.00 in0.0 mm
04:25 PM 31.9°F-0.1°C 21.5°F-5.8°C 65% 4.0 mph N6.4 kmh N 10.0 mph16.1 kmh 30.40 in1029.5 mb 0.00 in0.0 mm 0.00 in0.0 mm 0.00 in0.0 mm
04:30 PM 31.8°F-0.1°C 21.4°F-5.9°C 65% 2.0 mph NNW3.2 kmh NNW 10.0 mph16.1 kmh 30.41 in1029.8 mb 0.00 in0.0 mm 0.00 in0.0 mm 0.00 in0.0 mm
04:35 PM 31.8°F-0.1°C 21.8°F-5.7°C 66% 2.0 mph NW3.2 kmh NW 5.0 mph8.0 kmh 30.41 in1029.8 mb 0.00 in0.0 mm 0.00 in0.0 mm 0.00 in0.0 mm
04:40 PM 31.8°F-0.1°C 21.4°F-5.9°C 65% 4.0 mph NW6.4 kmh NW 8.0 mph12.9 kmh 30.41 in1029.8 mb 0.00 in0.0 mm 0.00 in0.0 mm 0.00 in0.0 mm
04:45 PM 31.8°F-0.1°C 21.4°F-5.9°C 65% 3.0 mph NNW4.8 kmh NNW 8.0 mph12.9 kmh 30.41 in1029.8 mb 0.00 in0.0 mm 0.00 in0.0 mm 0.00 in0.0 mm
04:50 PM 31.8°F-0.1°C 21.4°F-5.9°C 65% 2.0 mph N3.2 kmh N 7.0 mph11.3 kmh 30.42 in1030.1 mb 0.00 in0.0 mm 0.00 in0.0 mm 0.00 in0.0 mm
04:55 PM 31.8°F-0.1°C 21.4°F-5.9°C 65% 8.0 mph NNW12.9 kmh NNW 11.0 mph17.7 kmh 30.42 in1030.1 mb 0.00 in0.0 mm 0.00 in0.0 mm 0.00 in0.0 mm
05:00 PM 31.8°F-0.1°C 21.4°F-5.9°C 65% Calm Calm 4.0 mph6.4 kmh 30.42 in1030.1 mb 0.00 in0.0 mm 0.00 in0.0 mm 0.00 in0.0 mm
05:05 PM 31.9°F-0.1°C 21.9°F-5.6°C 66% 3.0 mph NNW4.8 kmh NNW 5.0 mph8.0 kmh 30.42 in1030.1 mb 0.00 in0.0 mm 0.00 in0.0 mm 0.00 in0.0 mm
05:10 PM 31.9°F-0.1°C 21.5°F-5.8°C 65% 9.0 mph N14.5 kmh N 10.0 mph16.1 kmh 30.43 in1030.5 mb 0.00 in0.0 mm 0.00 in0.0 mm 0.00 in0.0 mm
05:15 PM 31.8°F-0.1°C 21.8°F-5.7°C 66% 3.0 mph N4.8 kmh N 8.0 mph12.9 kmh 30.43 in1030.5 mb 0.00 in0.0 mm 0.00 in0.0 mm 0.00 in0.0 mm
05:20 PM 31.9°F-0.1°C 21.5°F-5.8°C 65% Calm Calm 6.0 mph9.7 kmh 30.43 in1030.5 mb 0.00 in0.0 mm 0.00 in0.0 mm 0.00 in0.0 mm
05:24 PM 31.9°F-0.1°C 21.9°F-5.6°C 66% Calm Calm 5.0 mph8.0 kmh 30.43 in1030.5 mb 0.00 in0.0 mm 0.00 in0.0 mm 0.00 in0.0 mm
05:29 PM 31.9°F-0.1°C 21.9°F-5.6°C 66% 4.0 mph NNW6.4 kmh NNW 6.0 mph9.7 kmh 30.43 in1030.5 mb 0.00 in0.0 mm 0.00 in0.0 mm 0.00 in0.0 mm
05:35 PM 31.9°F-0.1°C 21.9°F-5.6°C 66% 1.0 mph N1.6 kmh N 5.0 mph8.0 kmh 30.44 in1030.8 mb 0.00 in0.0 mm 0.00 in0.0 mm 0.00 in0.0 mm
05:40 PM 31.9°F-0.1°C 22.2°F-5.4°C 67% 9.0 mph N14.5 kmh N 9.0 mph14.5 kmh 30.44 in1030.8 mb 0.00 in0.0 mm 0.00 in0.0 mm 0.00 in0.0 mm
05:45 PM 31.7°F-0.2°C 22.0°F-5.6°C 67% 2.0 mph NW3.2 kmh NW 5.0 mph8.0 kmh 30.44 in1030.8 mb 0.00 in0.0 mm 0.00 in0.0 mm 0.00 in0.0 mm
05:50 PM 31.7°F-0.2°C 22.4°F-5.3°C 68% 3.0 mph NNW4.8 kmh NNW 6.0 mph9.7 kmh 30.44 in1030.8 mb 0.00 in0.0 mm 0.00 in0.0 mm 0.00 in0.0 mm
05:55 PM 31.7°F-0.2°C 22.7°F-5.2°C 69% 4.0 mph NNW6.4 kmh NNW 5.0 mph8.0 kmh 30.44 in1030.8 mb 0.00 in0.0 mm 0.00 in0.0 mm 0.00 in0.0 mm
06:00 PM 31.6°F-0.2°C 23.0°F-5.0°C 70% 2.0 mph N3.2 kmh N 4.0 mph6.4 kmh 30.45 in1031.2 mb 0.00 in0.0 mm 0.00 in0.0 mm 0.00 in0.0 mm
06:05 PM 31.5°F-0.3°C 22.9°F-5.1°C 70% 2.0 mph NNW3.2 kmh NNW 4.0 mph6.4 kmh 30.45 in1031.2 mb 0.00 in0.0 mm 0.00 in0.0 mm 0.00 in0.0 mm
06:10 PM 31.4°F-0.3°C 23.1°F-4.9°C 71% 1.0 mph NNW1.6 kmh NNW 3.0 mph4.8 kmh 30.46 in1031.5 mb 0.00 in0.0 mm 0.00 in0.0 mm 0.00 in0.0 mm
06:15 PM 31.5°F-0.3°C 23.2°F-4.9°C 71% Calm Calm 3.0 mph4.8 kmh 30.46 in1031.5 mb 0.00 in0.0 mm 0.00 in0.0 mm 0.00 in0.0 mm
06:20 PM 31.5°F-0.3°C 23.2°F-4.9°C 71% 3.0 mph NNW4.8 kmh NNW 4.0 mph6.4 kmh 30.46 in1031.5 mb 0.00 in0.0 mm 0.00 in0.0 mm 0.00 in0.0 mm
06:25 PM 31.5°F-0.3°C 23.2°F-4.9°C 71% Calm Calm 3.0 mph4.8 kmh 30.46 in1031.5 mb 0.00 in0.0 mm 0.00 in0.0 mm 0.00 in0.0 mm
06:30 PM 31.4°F-0.3°C 23.1°F-4.9°C 71% 3.0 mph NW4.8 kmh NW 3.0 mph4.8 kmh 30.47 in1031.8 mb 0.00 in0.0 mm 0.00 in0.0 mm 0.00 in0.0 mm
06:35 PM 31.3°F-0.4°C 23.3°F-4.8°C 72% 1.0 mph N1.6 kmh N 5.0 mph8.0 kmh 30.47 in1031.8 mb 0.00 in0.0 mm 0.00 in0.0 mm 0.00 in0.0 mm
06:40 PM 31.2°F-0.4°C 23.2°F-4.9°C 72% 4.0 mph NNE6.4 kmh NNE 5.0 mph8.0 kmh 30.47 in1031.8 mb 0.00 in0.0 mm 0.00 in0.0 mm 0.00 in0.0 mm
06:45 PM 31.2°F-0.4°C 23.6°F-4.7°C 73% 1.0 mph N1.6 kmh N 2.0 mph3.2 kmh 30.47 in1031.8 mb 0.00 in0.0 mm 0.00 in0.0 mm 0.00 in0.0 mm
06:50 PM 31.2°F-0.4°C 23.9°F-4.5°C 74% 1.0 mph N1.6 kmh N 3.0 mph4.8 kmh 30.47 in1031.8 mb 0.00 in0.0 mm 0.00 in0.0 mm 0.00 in0.0 mm
06:55 PM 31.2°F-0.4°C 23.6°F-4.7°C 73% Calm Calm 1.0 mph1.6 kmh 30.47 in1031.8 mb 0.00 in0.0 mm 0.00 in0.0 mm 0.00 in0.0 mm
07:00 PM 31.2°F-0.4°C 23.9°F-4.5°C 74% Calm Calm -- 30.48 in1032.2 mb 0.00 in0.0 mm 0.00 in0.0 mm 0.00 in0.0 mm
07:05 PM 31.2°F-0.4°C 23.9°F-4.5°C 74% Calm Calm 1.0 mph1.6 kmh 30.48 in1032.2 mb 0.00 in0.0 mm 0.00 in0.0 mm 0.00 in0.0 mm
07:10 PM 31.1°F-0.5°C 23.5°F-4.7°C 73% 1.0 mph N1.6 kmh N 1.0 mph1.6 kmh 30.48 in1032.2 mb 0.00 in0.0 mm 0.00 in0.0 mm 0.00 in0.0 mm
07:15 PM 31.1°F-0.5°C 23.8°F-4.6°C 74% 2.0 mph NW3.2 kmh NW 4.0 mph6.4 kmh 30.49 in1032.5 mb 0.00 in0.0 mm 0.00 in0.0 mm 0.00 in0.0 mm
07:20 PM 31.0°F-0.6°C 24.0°F-4.4°C 75% 1.0 mph NW1.6 kmh NW 2.0 mph3.2 kmh 30.49 in1032.5 mb 0.00 in0.0 mm 0.00 in0.0 mm 0.00 in0.0 mm
07:25 PM 30.9°F-0.6°C 24.2°F-4.3°C 76% Calm Calm 2.0 mph3.2 kmh 30.49 in1032.5 mb 0.00 in0.0 mm 0.00 in0.0 mm 0.00 in0.0 mm
07:30 PM 30.9°F-0.6°C 24.9°F-3.9°C 78% Calm Calm 1.0 mph1.6 kmh 30.50 in1032.8 mb 0.00 in0.0 mm 0.00 in0.0 mm 0.00 in0.0 mm
07:35 PM 30.8°F-0.7°C 25.1°F-3.8°C 79% Calm Calm 2.0 mph3.2 kmh 30.50 in1032.8 mb 0.00 in0.0 mm 0.00 in0.0 mm 0.00 in0.0 mm
07:40 PM 30.5°F-0.8°C 25.1°F-3.8°C 80% Calm Calm 2.0 mph3.2 kmh 30.50 in1032.8 mb 0.00 in0.0 mm 0.00 in0.0 mm 0.00 in0.0 mm
07:45 PM 30.3°F-0.9°C 25.5°F-3.6°C 82% 1.0 mph WNW1.6 kmh WNW 2.0 mph3.2 kmh 30.50 in1032.8 mb 0.00 in0.0 mm 0.00 in0.0 mm 0.00 in0.0 mm
07:50 PM 30.0°F-1.1°C 25.5°F-3.6°C 83% 1.0 mph NW1.6 kmh NW 3.0 mph4.8 kmh 30.51 in1033.2 mb 0.00 in0.0 mm 0.00 in0.0 mm 0.00 in0.0 mm
07:55 PM 29.8°F-1.2°C 25.6°F-3.6°C 84% Calm Calm 1.0 mph1.6 kmh 30.51 in1033.2 mb 0.00 in0.0 mm 0.00 in0.0 mm 0.00 in0.0 mm
08:00 PM 29.7°F-1.3°C 25.8°F-3.4°C 85% Calm Calm -- 30.51 in1033.2 mb 0.00 in0.0 mm 0.00 in0.0 mm 0.00 in0.0 mm
08:05 PM 29.6°F-1.3°C 25.9°F-3.4°C 86% Calm Calm -- 30.52 in1033.5 mb 0.00 in0.0 mm 0.00 in0.0 mm 0.00 in0.0 mm
08:10 PM 29.5°F-1.4°C 25.8°F-3.4°C 86% Calm Calm -- 30.52 in1033.5 mb 0.00 in0.0 mm 0.00 in0.0 mm 0.00 in0.0 mm
08:15 PM 29.5°F-1.4°C 25.8°F-3.4°C 86% Calm Calm -- 30.53 in1033.9 mb 0.00 in0.0 mm 0.00 in0.0 mm 0.00 in0.0 mm
08:20 PM 29.5°F-1.4°C 26.1°F-3.3°C 87% Calm Calm -- 30.53 in1033.9 mb 0.00 in0.0 mm 0.00 in0.0 mm 0.00 in0.0 mm
08:25 PM 29.4°F-1.4°C 26.0°F-3.3°C 87% Calm Calm -- 30.53 in1033.9 mb 0.00 in0.0 mm 0.00 in0.0 mm 0.00 in0.0 mm
08:30 PM 29.4°F-1.4°C 26.0°F-3.3°C 87% Calm Calm -- 30.53 in1033.9 mb 0.00 in0.0 mm 0.00 in0.0 mm 0.00 in0.0 mm
08:35 PM 29.4°F-1.4°C 26.0°F-3.3°C 87% Calm Calm 2.0 mph3.2 kmh 30.54 in1034.2 mb 0.00 in0.0 mm 0.00 in0.0 mm 0.00 in0.0 mm
08:40 PM 29.4°F-1.4°C 26.0°F-3.3°C 87% 2.0 mph NW3.2 kmh NW 2.0 mph3.2 kmh 30.54 in1034.2 mb 0.00 in0.0 mm 0.00 in0.0 mm 0.00 in0.0 mm
08:45 PM 29.3°F-1.5°C 26.2°F-3.2°C 88% Calm Calm -- 30.54 in1034.2 mb 0.00 in0.0 mm 0.00 in0.0 mm 0.00 in0.0 mm
08:49 PM 29.3°F-1.5°C 25.9°F-3.4°C 87% Calm Calm -- 30.54 in1034.2 mb 0.00 in0.0 mm 0.00 in0.0 mm 0.00 in0.0 mm
08:55 PM 29.3°F-1.5°C 26.2°F-3.2°C 88% Calm Calm -- 30.55 in1034.5 mb 0.00 in0.0 mm 0.00 in0.0 mm 0.00 in0.0 mm
09:00 PM 29.3°F-1.5°C 26.2°F-3.2°C 88% Calm Calm -- 30.54 in1034.2 mb 0.00 in0.0 mm 0.00 in0.0 mm 0.00 in0.0 mm
09:04 PM 29.3°F-1.5°C 26.2°F-3.2°C 88% Calm Calm -- 30.54 in1034.2 mb 0.00 in0.0 mm 0.00 in0.0 mm 0.00 in0.0 mm
09:09 PM 29.3°F-1.5°C 26.2°F-3.2°C 88% Calm Calm -- 30.55 in1034.5 mb 0.00 in0.0 mm 0.00 in0.0 mm 0.00 in0.0 mm
09:15 PM 29.3°F-1.5°C 26.2°F-3.2°C 88% Calm Calm -- 30.55 in1034.5 mb 0.00 in0.0 mm 0.00 in0.0 mm 0.00 in0.0 mm
09:20 PM 29.3°F-1.5°C 26.2°F-3.2°C 88% Calm Calm 1.0 mph1.6 kmh 30.55 in1034.5 mb 0.00 in0.0 mm 0.00 in0.0 mm 0.00 in0.0 mm
09:25 PM 29.2°F-1.6°C 26.1°F-3.3°C 88% Calm Calm -- 30.55 in1034.5 mb 0.00 in0.0 mm 0.00 in0.0 mm 0.00 in0.0 mm
09:30 PM 29.2°F-1.6°C 26.1°F-3.3°C 88% Calm Calm -- 30.55 in1034.5 mb 0.00 in0.0 mm 0.00 in0.0 mm 0.00 in0.0 mm
09:35 PM 29.2°F-1.6°C 26.4°F-3.1°C 89% Calm Calm -- 30.56 in1034.9 mb 0.00 in0.0 mm 0.00 in0.0 mm 0.00 in0.0 mm
09:39 PM 29.2°F-1.6°C 26.1°F-3.3°C 88% Calm Calm -- 30.56 in1034.9 mb 0.00 in0.0 mm 0.00 in0.0 mm 0.00 in0.0 mm
09:45 PM 29.2°F-1.6°C 26.1°F-3.3°C 88% Calm Calm -- 30.56 in1034.9 mb 0.00 in0.0 mm 0.00 in0.0 mm 0.00 in0.0 mm
09:50 PM 29.2°F-1.6°C 26.1°F-3.3°C 88% Calm Calm -- 30.56 in1034.9 mb 0.00 in0.0 mm 0.00 in0.0 mm 0.00 in0.0 mm
09:55 PM 29.2°F-1.6°C 26.1°F-3.3°C 88% Calm Calm -- 30.56 in1034.9 mb 0.00 in0.0 mm 0.00 in0.0 mm 0.00 in0.0 mm
10:00 PM 29.2°F-1.6°C 26.1°F-3.3°C 88% Calm Calm -- 30.56 in1034.9 mb 0.00 in0.0 mm 0.00 in0.0 mm 0.00 in0.0 mm
10:05 PM 29.1°F-1.6°C 26.0°F-3.3°C 88% Calm Calm -- 30.56 in1034.9 mb 0.00 in0.0 mm 0.00 in0.0 mm 0.00 in0.0 mm
10:10 PM 29.1°F-1.6°C 26.0°F-3.3°C 88% Calm Calm -- 30.56 in1034.9 mb 0.00 in0.0 mm 0.00 in0.0 mm 0.00 in0.0 mm
10:15 PM 29.2°F-1.6°C 26.1°F-3.3°C 88% Calm Calm -- 30.57 in1035.2 mb 0.00 in0.0 mm 0.00 in0.0 mm 0.00 in0.0 mm
10:20 PM 29.1°F-1.6°C 26.0°F-3.3°C 88% Calm Calm -- 30.57 in1035.2 mb 0.00 in0.0 mm 0.00 in0.0 mm 0.00 in0.0 mm
10:25 PM 29.1°F-1.6°C 26.0°F-3.3°C 88% Calm Calm -- 30.57 in1035.2 mb 0.00 in0.0 mm 0.00 in0.0 mm 0.00 in0.0 mm
10:30 PM 29.1°F-1.6°C 26.0°F-3.3°C 88% Calm Calm -- 30.57 in1035.2 mb 0.00 in0.0 mm 0.00 in0.0 mm 0.00 in0.0 mm
10:35 PM 29.1°F-1.6°C 26.0°F-3.3°C 88% Calm Calm -- 30.57 in1035.2 mb 0.00 in0.0 mm 0.00 in0.0 mm 0.00 in0.0 mm
10:40 PM 29.1°F-1.6°C 26.0°F-3.3°C 88% Calm Calm -- 30.57 in1035.2 mb 0.00 in0.0 mm 0.00 in0.0 mm 0.00 in0.0 mm
10:45 PM 29.1°F-1.6°C 26.0°F-3.3°C 88% Calm Calm -- 30.58 in1035.6 mb 0.00 in0.0 mm 0.00 in0.0 mm 0.00 in0.0 mm
10:50 PM 29.1°F-1.6°C 26.0°F-3.3°C 88% Calm Calm 1.0 mph1.6 kmh 30.58 in1035.6 mb 0.00 in0.0 mm 0.00 in0.0 mm 0.00 in0.0 mm
10:55 PM 29.1°F-1.6°C 26.0°F-3.3°C 88% Calm Calm -- 30.58 in1035.6 mb 0.00 in0.0 mm 0.00 in0.0 mm 0.00 in0.0 mm
10:59 PM 29.2°F-1.6°C 26.1°F-3.3°C 88% Calm Calm -- 30.58 in1035.6 mb 0.00 in0.0 mm 0.00 in0.0 mm 0.00 in0.0 mm
11:05 PM 29.2°F-1.6°C 26.1°F-3.3°C 88% Calm Calm 1.0 mph1.6 kmh 30.58 in1035.6 mb 0.00 in0.0 mm 0.00 in0.0 mm 0.00 in0.0 mm
11:10 PM 29.2°F-1.6°C 26.1°F-3.3°C 88% 1.0 mph NW1.6 kmh NW 1.0 mph1.6 kmh 30.58 in1035.6 mb 0.00 in0.0 mm 0.00 in0.0 mm 0.00 in0.0 mm
11:14 PM 29.3°F-1.5°C 26.2°F-3.2°C 88% Calm Calm -- 30.58 in1035.6 mb 0.00 in0.0 mm 0.00 in0.0 mm 0.00 in0.0 mm
11:20 PM 29.3°F-1.5°C 25.9°F-3.4°C 87% Calm Calm -- 30.58 in1035.6 mb 0.00 in0.0 mm 0.00 in0.0 mm 0.00 in0.0 mm
11:24 PM 29.3°F-1.5°C 25.9°F-3.4°C 87% Calm Calm -- 30.58 in1035.6 mb 0.00 in0.0 mm 0.00 in0.0 mm 0.00 in0.0 mm
11:30 PM 29.3°F-1.5°C 25.9°F-3.4°C 87% Calm Calm 2.0 mph3.2 kmh 30.58 in1035.6 mb 0.00 in0.0 mm 0.00 in0.0 mm 0.00 in0.0 mm
11:34 PM 29.3°F-1.5°C 25.9°F-3.4°C 87% 2.0 mph NW3.2 kmh NW 2.0 mph3.2 kmh 30.58 in1035.6 mb 0.00 in0.0 mm 0.00 in0.0 mm 0.00 in0.0 mm
11:40 PM 29.3°F-1.5°C 25.9°F-3.4°C 87% Calm Calm 2.0 mph3.2 kmh 30.58 in1035.6 mb 0.00 in0.0 mm 0.00 in0.0 mm 0.00 in0.0 mm
11:45 PM 29.4°F-1.4°C 25.7°F-3.5°C 86% 1.0 mph NW1.6 kmh NW 3.0 mph4.8 kmh 30.58 in1035.6 mb 0.00 in0.0 mm 0.00 in0.0 mm 0.00 in0.0 mm
11:49 PM 29.4°F-1.4°C 25.7°F-3.5°C 86% Calm Calm 1.0 mph1.6 kmh 30.58 in1035.6 mb 0.00 in0.0 mm 0.00 in0.0 mm 0.00 in0.0 mm
11:54 PM 29.5°F-1.4°C 25.8°F-3.4°C 86% 1.0 mph NW1.6 kmh NW 2.0 mph3.2 kmh 30.58 in1035.6 mb 0.00 in0.0 mm 0.00 in0.0 mm 0.00 in0.0 mm